Time;durP1;ratioP1;P1;durP2;ratioP2;P2;SDS_P1;SDS_P2;PMS_P1;PMS_P2;Temp;Humidity;BMP_temperature;BMP_pressure;BME280_temperature;BME280_humidity;BME280_pressure;Samples;Min_cycle;Max_cycle;Signal;HPM_P1;HPM_P2
2022/11/19 00:01:19;;;;;;;26.13;10.33;;;;;;;-2.81;89.25;100181.66;3651389;80;30671;-89
2022/11/19 00:06:23;;;;;;;22.87;8.47;;;;;;;-2.88;89.28;100180.70;3663480;78;98995;-88
2022/11/19 00:16:46;;;;;;;18.83;7.30;;;;;;;-2.99;89.76;100189.23;3652240;79;98517;-89
2022/11/19 00:21:48;;;;;;;19.00;7.73;;;;;;;-3.05;90.00;100193.10;3661783;78;26227;-88
2022/11/19 00:26:49;;;;;;;19.27;7.72;;;;;;;-3.11;89.95;100189.67;3652169;80;98845;-88
2022/11/19 00:31:49;;;;;;;31.93;11.50;;;;;;;-3.19;90.00;100197.08;3650411;80;25920;-89
2022/11/19 00:36:50;;;;;;;47.17;16.57;;;;;;;-3.22;90.34;100195.52;3662606;78;98747;-87
2022/11/19 00:41:51;;;;;;;42.37;15.10;;;;;;;-3.27;90.21;100200.41;3650931;80;26533;-88
2022/11/19 00:46:52;;;;;;;28.37;11.77;;;;;;;-3.35;90.39;100190.31;3648670;80;99189;-88
2022/11/19 00:51:54;;;;;;;27.23;12.13;;;;;;;-3.37;90.49;100200.58;3657534;78;26093;-88
2022/11/19 00:56:54;;;;;;;23.23;10.00;;;;;;;-3.42;90.43;100206.03;3647647;80;98645;-85
2022/11/19 01:01:55;;;;;;;17.87;8.23;;;;;;;-3.48;90.53;100207.20;3659170;80;26628;-88
2022/11/19 01:06:56;;;;;;;21.03;9.40;;;;;;;-3.53;90.65;100204.58;3663273;78;98916;-87
2022/11/19 01:11:57;;;;;;;22.67;9.47;;;;;;;-3.56;91.18;100201.10;3654539;79;33480;-87
2022/11/19 01:16:57;;;;;;;20.97;9.33;;;;;;;-3.57;91.17;100206.23;3654750;78;98534;-87
2022/11/19 01:21:58;;;;;;;22.83;9.63;;;;;;;-3.61;91.33;100202.52;3659958;79;33444;-86
2022/11/19 01:26:59;;;;;;;21.90;9.63;;;;;;;-3.63;91.37;100206.05;3655966;78;98983;-87
2022/11/19 01:32:00;;;;;;;24.43;10.13;;;;;;;-3.67;91.64;100205.58;3668636;78;32460;-87
2022/11/19 01:37:00;;;;;;;22.27;11.27;;;;;;;-3.66;91.71;100209.86;3659605;79;99009;-86
2022/11/19 01:42:01;;;;;;;19.23;9.47;;;;;;;-3.67;91.93;100209.05;3680363;78;28151;-86
2022/11/19 01:47:02;;;;;;;21.13;10.00;;;;;;;-3.69;91.86;100197.80;3675195;79;98632;-86
2022/11/19 01:52:03;;;;;;;20.47;9.00;;;;;;;-3.74;91.52;100203.77;3679086;78;31583;-86
2022/11/19 01:57:09;;;;;;;19.97;9.10;;;;;;;-3.81;92.01;100200.64;3679953;78;98594;-86
2022/11/19 02:02:10;;;;;;;20.17;9.08;;;;;;;-3.91;91.45;100201.58;3694348;79;25773;-85
2022/11/19 02:07:12;;;;;;;22.23;9.90;;;;;;;-3.96;91.63;100208.88;3678479;78;98706;-85
2022/11/19 02:12:43;;;;;;;21.17;8.97;;;;;;;-4.06;91.14;100215.71;3689349;78;26321;-85
2022/11/19 02:17:52;;;;;;;29.17;12.07;;;;;;;-4.17;91.34;100216.38;3672904;79;98503;-86
2022/11/19 02:23:35;;;;;;;28.70;12.23;;;;;;;-4.24;91.80;100220.48;3682239;79;26208;-87
2022/11/19 02:29:08;;;;;;;25.83;11.13;;;;;;;-4.26;91.91;100226.14;3693939;79;26368;-85
2022/11/19 02:34:14;;;;;;;26.30;11.47;;;;;;;-4.29;92.15;100230.76;3677214;79;98911;-85
2022/11/19 02:39:26;;;;;;;25.80;11.48;;;;;;;-4.30;92.12;100233.19;3673756;78;25809;-85
2022/11/19 02:45:00;;;;;;;25.15;10.78;;;;;;;-4.34;92.33;100236.70;3666426;78;99052;-85
2022/11/19 02:50:07;;;;;;;27.60;12.27;;;;;;;-4.41;92.27;100232.22;3675945;78;26038;-84
2022/11/19 02:55:20;;;;;;;28.10;12.50;;;;;;;-4.44;92.29;100243.52;3661721;78;99018;-85
2022/11/19 03:05:46;;;;;;;25.53;12.33;;;;;;;-4.54;92.39;100236.36;3671620;78;99073;-84
2022/11/19 03:11:13;;;;;;;28.32;12.20;;;;;;;-4.58;92.43;100232.63;3672450;79;25955;-85
2022/11/19 03:21:43;;;;;;;30.40;13.90;;;;;;;-4.63;92.78;100243.97;3680239;79;27218;-84
2022/11/19 03:26:52;;;;;;;27.80;12.90;;;;;;;-4.66;92.93;100243.18;3667971;79;99052;-84
2022/11/19 03:32:02;;;;;;;28.77;13.27;;;;;;;-4.71;92.83;100248.06;3676578;78;27201;-85
2022/11/19 03:37:06;;;;;;;28.20;12.63;;;;;;;-4.75;93.11;100245.67;3663215;79;98585;-84
2022/11/19 03:42:11;;;;;;;28.93;11.93;;;;;;;-4.78;93.22;100242.75;3676935;78;30113;-84
2022/11/19 03:47:17;;;;;;;26.60;12.75;;;;;;;-4.78;93.65;100257.52;3670618;79;98850;-84
2022/11/19 03:52:19;;;;;;;;;;;;;;;-4.78;93.65;100257.52;3684289;79;25816;-84
2022/11/19 03:57:23;;;;;;;27.50;12.37;;;;;;;-4.87;93.00;100255.97;3682587;78;84643;-84
2022/11/19 04:02:24;;;;;;;24.53;11.13;;;;;;;-4.95;92.85;100261.95;3687968;79;28197;-84
2022/11/19 04:07:25;;;;;;;31.90;13.27;;;;;;;-5.01;93.16;100255.55;3680177;79;99190;-83
2022/11/19 04:12:26;;;;;;;24.33;11.70;;;;;;;-5.10;92.75;100264.73;3673761;78;31657;-83
2022/11/19 04:17:27;;;;;;;26.37;12.23;;;;;;;-5.14;92.76;100265.58;3674482;78;98620;-84
2022/11/19 04:22:27;;;;;;;30.17;13.57;;;;;;;-5.17;93.10;100248.67;3682384;79;31736;-84
2022/11/19 04:27:28;;;;;;;34.75;15.30;;;;;;;-5.18;93.07;100260.49;3678694;78;98698;-84
2022/11/19 04:32:29;;;;;;;85.90;27.67;;;;;;;-5.18;93.27;100261.83;3684262;79;30003;-84
2022/11/19 04:37:30;;;;;;;95.03;30.47;;;;;;;-5.19;93.34;100252.19;3675130;78;98717;-82
2022/11/19 04:42:30;;;;;;;79.97;25.43;;;;;;;-5.19;93.36;100263.70;3652264;78;35384;-83
2022/11/19 04:47:31;;;;;;;76.80;22.63;;;;;;;-5.23;93.08;100257.28;3647618;78;98826;-83
2022/11/19 04:52:32;;;;;;;67.63;22.00;;;;;;;-5.32;92.27;100255.47;3650172;78;34895;-84
2022/11/19 04:57:33;;;;;;;52.17;17.53;;;;;;;-5.45;92.31;100255.53;3642393;80;98640;-83
2022/11/19 05:02:34;;;;;;;44.77;17.23;;;;;;;-5.49;92.75;100246.98;3647094;78;35660;-83
2022/11/19 05:07:35;;;;;;;51.50;17.87;;;;;;;-5.50;93.04;100241.37;3646918;78;98676;-83
2022/11/19 05:12:36;;;;;;;75.70;25.80;;;;;;;-5.50;92.96;100234.66;3657110;80;35681;-83
2022/11/19 05:17:37;;;;;;;79.67;28.70;;;;;;;-5.52;92.63;100225.55;3645852;80;98780;-84
2022/11/19 05:22:37;;;;;;;76.60;24.77;;;;;;;-5.59;92.91;100224.25;3652408;78;32949;-83
2022/11/19 05:27:38;;;;;;;107.73;32.93;;;;;;;-5.61;92.91;100224.55;3643626;79;99056;-84
2022/11/19 05:32:39;;;;;;;72.87;27.73;;;;;;;-5.68;92.75;100222.69;3654226;80;32488;-84
2022/11/19 05:37:40;;;;;;;77.47;30.53;;;;;;;-5.70;92.66;100224.03;3640104;78;98731;-83
2022/11/19 05:42:41;;;;;;;88.87;29.93;;;;;;;-5.70;92.93;100228.88;3688521;79;32474;-84
2022/11/19 05:47:42;;;;;;;58.97;23.03;;;;;;;-5.71;93.08;100221.91;3681431;78;98804;-83
2022/11/19 05:52:43;;;;;;;55.43;22.30;;;;;;;-5.70;93.17;100230.22;3683041;78;32433;-83
2022/11/19 05:57:43;;;;;;;46.20;20.93;;;;;;;-5.70;92.83;100226.19;3676843;78;98833;-84
2022/11/19 06:02:44;;;;;;;56.33;20.63;;;;;;;-5.79;92.45;100221.69;3680027;78;32552;-84
2022/11/19 06:07:46;;;;;;;53.98;21.25;;;;;;;-5.86;92.50;100237.27;3688355;78;98644;-84
2022/11/19 06:12:46;;;;;;;45.87;20.13;;;;;;;-5.94;92.36;100234.62;3688286;78;28257;-84
2022/11/19 06:17:47;;;;;;;51.53;20.37;;;;;;;-5.90;93.16;100226.30;3685860;78;98591;-84
2022/11/19 06:22:48;;;;;;;53.00;20.73;;;;;;;-5.89;92.90;100237.28;3677650;78;25808;-84
2022/11/19 06:27:49;;;;;;;53.53;22.67;;;;;;;-5.92;92.84;100241.05;3680552;78;98712;-84
2022/11/19 06:32:50;;;;;;;48.47;22.00;;;;;;;-5.94;93.06;100248.02;3678904;78;25963;-84
2022/11/19 06:37:50;;;;;;;42.20;20.23;;;;;;;-5.93;93.17;100237.58;3676807;78;98634;-84
2022/11/19 06:42:51;;;;;;;42.13;19.40;;;;;;;-5.95;93.16;100240.27;3688395;78;25804;-84
2022/11/19 06:47:52;;;;;;;40.93;18.97;;;;;;;-5.96;93.11;100240.80;3673440;78;98709;-84
2022/11/19 06:52:52;;;;;;;65.77;26.67;;;;;;;-5.98;93.37;100241.62;3685337;78;32917;-85
2022/11/19 06:57:53;;;;;;;84.57;27.63;;;;;;;-5.95;93.40;100238.38;3668230;78;98929;-85
2022/11/19 07:02:54;;;;;;;153.57;48.13;;;;;;;-5.95;93.67;100243.73;3683690;78;32869;-84
2022/11/19 07:07:55;;;;;;;116.43;38.40;;;;;;;-5.91;93.94;100247.48;3671534;78;98932;-84
2022/11/19 07:12:56;;;;;;;66.27;25.93;;;;;;;-5.85;94.36;100245.04;3678973;78;33051;-84
2022/11/19 07:17:56;;;;;;;50.87;20.83;;;;;;;-5.76;94.89;100254.09;3672787;78;98754;-84
2022/11/19 07:22:59;;;;;;;47.63;20.97;;;;;;;-5.65;95.28;100248.14;3676681;78;30088;-83
2022/11/19 07:28:00;;;;;;;44.73;20.07;;;;;;;-5.51;96.69;100252.62;3679023;78;98655;-84
2022/11/19 07:33:01;;;;;;;45.60;21.80;;;;;;;-5.34;97.05;100245.57;3679963;78;32077;-83
2022/11/19 07:38:01;;;;;;;49.40;21.77;;;;;;;-5.14;97.59;100248.92;3658523;78;99156;-83
2022/11/19 07:43:02;;;;;;;51.50;22.10;;;;;;;-4.92;97.88;100247.17;3693381;78;26535;-83
2022/11/19 07:48:03;;;;;;;45.50;19.00;;;;;;;-4.71;98.00;100251.27;3672430;78;98432;-84
2022/11/19 07:53:04;;;;;;;45.23;21.93;;;;;;;-4.52;98.03;100252.20;3687846;77;31668;-85
2022/11/19 07:58:05;;;;;;;55.10;25.13;;;;;;;-4.33;97.88;100251.73;3691937;78;98650;-85
2022/11/19 08:03:06;;;;;;;54.80;26.37;;;;;;;-4.17;97.81;100250.50;3691545;78;32749;-84
2022/11/19 08:08:07;;;;;;;50.73;23.80;;;;;;;-3.99;97.84;100241.72;3670214;78;98644;-84
2022/11/19 08:13:08;;;;;;;53.67;23.70;;;;;;;-3.76;97.94;100234.19;3676519;78;29878;-84
2022/11/19 08:18:14;;;;;;;42.07;21.43;;;;;;;-3.50;98.14;100230.87;3678068;78;98782;-84
2022/11/19 08:23:15;;;;;;;;;;;;;;;-3.24;97.63;100226.75;3563412;81;98741;-83
2022/11/19 08:28:15;;;;;;;40.05;17.95;;;;;;;-2.95;97.48;100216.61;3605776;81;32645;-83
2022/11/19 08:33:16;;;;;;;34.03;17.00;;;;;;;-2.69;97.47;100215.11;3642729;78;98743;-83
2022/11/19 08:38:17;;;;;;;32.17;16.70;;;;;;;-2.37;97.55;100206.19;3603092;80;31619;-83
2022/11/19 08:43:18;;;;;;;33.57;16.07;;;;;;;-1.99;96.69;100205.73;3558696;80;99324;-82
2022/11/19 08:48:19;;;;;;;31.43;16.63;;;;;;;-1.61;96.47;100207.65;3565769;80;31552;-82
2022/11/19 08:53:20;;;;;;;30.97;14.00;;;;;;;-1.30;95.27;100202.66;3650476;79;98812;-83
2022/11/19 08:58:21;;;;;;;30.13;14.97;;;;;;;-1.11;95.08;100207.33;3650366;78;29794;-83
2022/11/19 09:03:22;;;;;;;30.63;13.77;;;;;;;-0.76;94.35;100201.64;3653200;79;102344;-82
2022/11/19 09:08:23;;;;;;;29.87;14.03;;;;;;;-0.49;93.11;100204.20;3663239;78;26856;-82
2022/11/19 09:13:24;;;;;;;27.53;13.63;;;;;;;-0.27;93.36;100198.75;3646068;79;99116;-82
2022/11/19 09:18:25;;;;;;;27.73;13.43;;;;;;;-0.10;90.69;100191.52;3656763;79;35308;-81
2022/11/19 09:23:26;;;;;;;29.60;14.30;;;;;;;0.07;91.09;100191.58;3654534;78;98810;-82
2022/11/19 09:28:29;;;;;;;28.73;13.47;;;;;;;0.24;90.51;100191.63;3655508;79;34837;-82
2022/11/19 09:33:34;;;;;;;27.80;14.90;;;;;;;0.35;89.27;100184.81;3649880;79;98524;-82
2022/11/19 09:38:35;;;;;;;29.23;15.10;;;;;;;0.36;89.17;100176.39;3660707;78;25872;-81
2022/11/19 09:43:53;;;;;;;30.40;15.97;;;;;;;0.42;88.65;100181.08;3677478;78;98581;-81
2022/11/19 09:48:58;;;;;;;32.67;16.40;;;;;;;0.39;88.49;100170.89;3687187;78;26927;-82
2022/11/19 09:54:07;;;;;;;35.10;16.50;;;;;;;0.36;87.97;100164.75;3678957;78;98874;-81
2022/11/19 09:59:16;;;;;;;30.70;16.37;;;;;;;0.32;87.62;100160.53;3679614;78;28913;-83
2022/11/19 10:04:22;;;;;;;32.00;16.37;;;;;;;0.30;87.48;100164.66;3667555;78;98440;-83
2022/11/19 10:09:28;;;;;;;29.18;15.38;;;;;;;0.31;87.19;100164.89;3684683;78;30098;-82
2022/11/19 10:14:55;;;;;;;33.17;16.47;;;;;;;0.34;86.84;100158.86;3670762;78;98777;-83
2022/11/19 10:20:26;;;;;;;32.27;15.87;;;;;;;0.34;86.90;100158.29;3639120;78;28162;-82
2022/11/19 10:25:35;;;;;;;30.12;13.98;;;;;;;0.35;85.42;100149.08;3562471;81;98875;-83
2022/11/19 10:30:39;;;;;;;31.03;15.00;;;;;;;0.34;86.09;100129.09;3653707;78;26366;-82
2022/11/19 10:35:56;;;;;;;33.13;18.43;;;;;;;0.44;85.56;100119.31;3678450;78;98887;-84
2022/11/19 10:41:03;;;;;;;31.57;14.43;;;;;;;0.52;85.03;100121.22;3671552;78;29797;-81
2022/11/19 10:46:05;;;;;;;;;;;;;;;0.58;83.51;100113.98;3655402;78;98519;-83
2022/11/19 10:51:23;;;;;;;24.57;11.68;;;;;;;0.62;82.44;100108.72;3659564;79;30412;-84
2022/11/19 10:56:35;;;;;;;25.52;11.43;;;;;;;0.65;81.56;100104.81;3647514;79;98697;-82
2022/11/19 11:01:41;;;;;;;23.40;10.82;;;;;;;0.68;81.00;100092.00;3663028;78;29883;-82
2022/11/19 11:06:57;;;;;;;40.87;12.93;;;;;;;0.66;79.16;100095.57;3646677;79;98566;-84
2022/11/19 11:17:41;;;;;;;22.07;11.30;;;;;;;0.58;76.84;100087.45;3652815;78;98640;-82
2022/11/19 11:22:44;;;;;;;22.40;11.07;;;;;;;0.55;77.81;100079.98;3671607;79;26435;-82
2022/11/19 11:27:46;;;;;;;21.17;10.45;;;;;;;0.53;77.10;100075.42;3666097;78;98336;-81
2022/11/19 11:32:47;;;;;;;26.37;11.23;;;;;;;0.47;76.18;100065.33;3657524;78;26349;-82
2022/11/19 11:37:48;;;;;;;23.43;11.37;;;;;;;0.44;77.33;100059.77;3650769;79;98653;-82
2022/11/19 11:42:51;;;;;;;26.97;12.33;;;;;;;0.40;77.33;100063.64;3677418;78;34807;-81
2022/11/19 11:47:52;;;;;;;29.25;13.53;;;;;;;0.39;77.72;100067.47;3675248;78;98696;-81
2022/11/19 11:52:58;;;;;;;23.10;10.60;;;;;;;0.35;77.90;100067.08;3665861;78;34843;-81
2022/11/19 11:58:04;;;;;;;27.13;12.63;;;;;;;0.34;77.95;100065.48;3671216;78;98816;-82
2022/11/19 12:03:09;;;;;;;25.50;11.30;;;;;;;0.30;77.93;100069.94;3686141;78;26547;-83
2022/11/19 12:08:46;;;;;;;28.90;11.67;;;;;;;0.29;78.72;100064.29;3683700;78;27796;-82
2022/11/19 12:14:05;;;;;;;23.02;10.28;;;;;;;0.34;79.00;100062.78;3675632;78;98858;-83
2022/11/19 12:19:32;;;;;;;28.23;13.00;;;;;;;0.24;79.60;100069.28;3689420;78;25994;-82
2022/11/19 12:25:00;;;;;;;26.60;12.47;;;;;;;0.16;81.22;100082.27;3675459;78;98994;-83
2022/11/19 12:30:09;;;;;;;29.33;14.80;;;;;;;-0.05;82.98;100082.62;3698146;78;26515;-82
2022/11/19 12:35:37;;;;;;;19.90;10.27;;;;;;;-0.23;84.83;100092.36;3673072;78;99147;-82
2022/11/19 12:41:00;;;;;;;24.55;10.78;;;;;;;-0.34;85.23;100091.63;3674688;78;29790;-81
2022/11/19 12:46:22;;;;;;;36.40;16.82;;;;;;;-0.43;86.41;100090.78;3603795;79;99323;-82
2022/11/19 12:51:57;;;;;;;26.60;11.40;;;;;;;-0.49;87.77;100086.09;3645519;79;26448;-80
2022/11/19 12:57:14;;;;;;;17.13;9.43;;;;;;;-0.58;88.14;100087.95;3635827;79;99046;-81
2022/11/19 13:02:57;;;;;;;22.17;11.53;;;;;;;-0.70;89.30;100085.03;3644961;79;26936;-79
2022/11/19 13:08:31;;;;;;;23.33;9.50;;;;;;;-0.73;89.88;100080.81;3639634;79;98985;-81
2022/11/19 13:13:37;;;;;;;19.30;8.30;;;;;;;-0.86;91.16;100078.98;3629727;79;98847;-81
2022/11/19 13:18:40;;;;;;;;;;;;;;;-0.92;92.18;100077.52;3649534;79;26625;-81
2022/11/19 13:23:47;;;;;;;33.83;12.53;;;;;;;-0.96;93.10;100071.94;3632900;79;84853;-81
2022/11/19 13:28:56;;;;;;;29.97;13.40;;;;;;;-0.93;93.24;100074.02;3636369;79;27885;-81
2022/11/19 13:34:02;;;;;;;31.40;12.47;;;;;;;-0.90;93.40;100082.05;3634461;79;99374;-81
2022/11/19 13:39:13;;;;;;;;;;;;;;;-0.97;94.01;100080.34;3620022;79;26926;-79
2022/11/19 13:49:43;;;;;;;26.20;13.37;;;;;;;-1.03;94.82;100077.54;3665094;79;27716;-79
2022/11/19 13:54:45;;;;;;;22.33;11.00;;;;;;;-1.09;95.50;100066.63;3652208;78;99281;-79
2022/11/19 13:59:47;;;;;;;24.17;10.97;;;;;;;-1.12;95.57;100069.39;3659030;79;26581;-80
2022/11/19 14:05:29;;;;;;;28.07;13.20;;;;;;;-1.12;96.53;100072.62;3652732;78;99025;-80
2022/11/19 14:10:52;;;;;;;22.13;10.18;;;;;;;-1.18;96.26;100066.58;3659827;79;32289;-79
2022/11/19 14:27:30;;;;;;;28.50;12.60;;;;;;;-1.26;97.16;100079.45;3642005;79;99048;-79
2022/11/19 14:32:48;;;;;;;26.70;11.03;;;;;;;-1.31;97.62;100076.87;3664743;79;26656;-79
2022/11/19 14:37:53;;;;;;;27.40;11.65;;;;;;;-1.34;97.83;100081.55;3659152;78;99170;-80
2022/11/19 14:48:27;;;;;;;33.37;15.63;;;;;;;-1.35;98.57;100071.05;3688443;78;26404;-81
2022/11/19 14:53:27;;;;;;;33.18;15.58;;;;;;;-1.33;98.98;100072.88;3670571;78;98969;-81
2022/11/19 14:58:29;;;;;;;34.97;15.87;;;;;;;-1.35;99.15;100081.31;3674595;78;34839;-81
2022/11/19 15:03:30;;;;;;;28.57;14.57;;;;;;;-1.34;99.36;100075.34;3673157;78;99025;-81
2022/11/19 15:08:49;;;;;;;32.57;16.30;;;;;;;-1.34;99.65;100065.89;3675770;78;34880;-81
2022/11/19 15:14:28;;;;;;;31.73;16.33;;;;;;;-1.34;100.00;100069.41;3681249;78;99239;-83
2022/11/19 15:19:37;;;;;;;37.70;18.17;;;;;;;-1.32;99.85;100067.18;3669446;78;26167;-84
2022/11/19 15:24:47;;;;;;;36.75;17.52;;;;;;;-1.28;99.89;100068.17;3667895;78;99251;-83
2022/11/19 15:30:08;;;;;;;37.50;18.30;;;;;;;-1.28;100.00;100059.27;3687791;78;26437;-83
2022/11/19 15:35:26;;;;;;;44.63;20.73;;;;;;;-1.20;100.00;100051.79;3676517;78;99046;-83
2022/11/19 15:40:31;;;;;;;40.03;19.12;;;;;;;-1.20;100.00;100051.79;3686370;78;30904;-84
2022/11/19 15:45:44;;;;;;;32.83;15.90;;;;;;;-1.23;100.00;100053.20;3666310;78;99497;-84
2022/11/19 15:50:47;;;;;;;36.03;19.20;;;;;;;-1.23;100.00;100056.44;3687187;78;29928;-84
2022/11/19 15:55:58;;;;;;;38.63;18.67;;;;;;;-1.25;100.00;100054.07;3675012;78;99107;-84
2022/11/19 16:00:59;;;;;;;41.30;19.63;;;;;;;-1.23;100.00;100055.09;3685547;78;25957;-83
2022/11/19 16:06:08;;;;;;;49.50;23.60;;;;;;;-1.26;100.00;100056.50;3673687;78;99340;-83
2022/11/19 16:22:00;;;;;;;35.27;18.80;;;;;;;-1.22;100.00;100053.44;3687721;78;28008;-83
2022/11/19 16:27:03;;;;;;;40.40;16.87;;;;;;;-1.22;100.00;100042.64;3682850;78;99051;-83
2022/11/19 16:32:06;;;;;;;37.17;17.40;;;;;;;-1.23;100.00;100051.04;3665632;78;26462;-84
2022/11/19 16:37:12;;;;;;;35.00;15.83;;;;;;;-1.22;100.00;100049.96;3663060;78;99173;-83
2022/11/19 16:42:17;;;;;;;34.05;16.48;;;;;;;-1.22;100.00;100045.91;3674130;78;26353;-83
2022/11/19 16:47:37;;;;;;;37.27;14.63;;;;;;;-1.22;100.00;100044.56;3543091;81;98958;-83
2022/11/19 16:52:42;;;;;;;33.27;16.13;;;;;;;-1.20;100.00;100051.79;3664170;78;26927;-83
2022/11/19 16:57:50;;;;;;;32.08;13.88;;;;;;;-1.21;100.00;100058.30;3594421;80;99052;-83
2022/11/19 17:02:51;;;;;;;34.73;15.97;;;;;;;-1.21;100.00;100052.90;3661134;79;26333;-83
2022/11/19 17:08:04;;;;;;;33.13;15.47;;;;;;;-1.24;100.00;100058.91;3645928;78;99061;-83
2022/11/19 17:13:27;;;;;;;33.00;16.05;;;;;;;-1.23;100.00;100061.84;3652388;79;31296;-83
2022/11/19 17:18:31;;;;;;;37.37;16.73;;;;;;;-1.24;100.00;100059.71;3655783;79;27024;-84
2022/11/19 17:23:38;;;;;;;32.65;15.40;;;;;;;-1.22;100.00;100063.45;3648375;78;99349;-83
2022/11/19 17:28:45;;;;;;;;;;;;;;;-1.22;100.00;100058.84;3656688;79;26620;-83
2022/11/19 17:34:11;;;;;;;37.30;16.85;;;;;;;-1.21;100.00;100059.08;3652076;78;85003;-85
2022/11/19 17:39:13;;;;;;;37.97;15.67;;;;;;;-1.21;100.00;100061.00;3682536;78;25850;-85
2022/11/19 17:44:30;;;;;;;37.37;17.03;;;;;;;-1.18;100.00;100064.41;3664995;78;99254;-85
2022/11/19 17:49:31;;;;;;;39.60;18.33;;;;;;;-1.15;100.00;100061.89;3656738;78;26350;-83
2022/11/19 17:54:33;;;;;;;42.27;18.17;;;;;;;-1.12;100.00;100065.34;3645440;79;99240;-85
2022/11/19 17:59:34;;;;;;;39.40;18.00;;;;;;;-1.09;100.00;100066.05;3650081;79;34853;-84
2022/11/19 18:04:34;;;;;;;38.30;19.63;;;;;;;-1.11;100.00;100063.45;3662368;78;99265;-84
2022/11/19 18:09:36;;;;;;;39.13;17.70;;;;;;;-1.12;100.00;100059.12;3659774;79;36214;-84
2022/11/19 18:14:37;;;;;;;41.40;18.07;;;;;;;-1.12;100.00;100063.98;3656759;79;99488;-84
2022/11/19 18:19:37;;;;;;;35.37;15.43;;;;;;;-1.12;100.00;100067.23;3661201;78;35346;-84
2022/11/19 18:24:38;;;;;;;36.13;17.70;;;;;;;-1.28;100.00;100044.41;3654463;79;99284;-85
2022/11/19 18:29:39;;;;;;;35.10;15.97;;;;;;;-1.14;100.00;100072.95;3656880;79;34829;-84
2022/11/19 18:34:40;;;;;;;36.63;14.73;;;;;;;-1.10;100.00;100078.53;3654731;78;99152;-84
2022/11/19 18:39:41;;;;;;;37.90;16.40;;;;;;;-1.10;100.00;100077.97;3659114;79;34821;-85
2022/11/19 18:44:42;;;;;;;39.53;16.63;;;;;;;-1.11;100.00;100080.42;3652566;79;99192;-84
2022/11/19 18:49:43;;;;;;;38.77;17.33;;;;;;;-1.08;100.00;100080.36;3664730;78;32495;-84
2022/11/19 18:54:44;;;;;;;40.95;19.67;;;;;;;-1.08;100.00;100083.06;3656198;79;98883;-84
2022/11/19 18:59:45;;;;;;;38.07;17.40;;;;;;;-1.08;100.00;100085.77;3658945;78;32455;-84
2022/11/19 19:04:45;;;;;;;44.80;20.53;;;;;;;-1.09;100.00;100089.58;3657035;79;99174;-84
2022/11/19 19:09:46;;;;;;;43.40;18.37;;;;;;;-1.09;100.00;100091.70;3661444;79;32542;-84
2022/11/19 19:14:50;;;;;;;41.35;18.35;;;;;;;-1.08;100.00;100082.52;3655790;78;99440;-84
2022/11/19 19:19:51;;;;;;;41.63;20.23;;;;;;;-1.09;100.00;100089.58;3669815;79;32574;-84
2022/11/19 19:24:51;;;;;;;42.30;20.83;;;;;;;-1.09;100.00;100089.58;3650434;79;99361;-85
2022/11/19 19:29:52;;;;;;;41.77;20.03;;;;;;;-1.11;100.00;100092.58;3660785;78;33623;-84
2022/11/19 19:34:54;;;;;;;38.80;19.27;;;;;;;-1.09;100.00;100098.45;3652412;79;99021;-84
2022/11/19 19:39:55;;;;;;;36.40;16.07;;;;;;;-1.09;100.00;100105.77;3667866;79;32577;-84
2022/11/19 19:44:57;;;;;;;33.60;16.97;;;;;;;-1.07;100.00;100105.72;3651841;78;99185;-83
2022/11/19 19:49:58;;;;;;;35.10;16.63;;;;;;;-1.05;100.00;100114.87;3663983;79;32427;-83
2022/11/19 19:54:59;;;;;;;40.33;18.37;;;;;;;-1.04;100.00;100114.53;3655698;79;99353;-82
2022/11/19 19:59:59;;;;;;;36.23;17.30;;;;;;;-1.03;100.00;100117.50;3667073;78;32452;-83
2022/11/19 20:05:00;;;;;;;34.80;15.13;;;;;;;-1.01;100.00;100117.98;3650766;79;99168;-83
2022/11/19 20:10:01;;;;;;;31.40;14.77;;;;;;;-1.00;100.00;100114.74;3656970;78;32683;-83
2022/11/19 20:15:03;;;;;;;35.43;15.53;;;;;;;-1.00;100.00;100122.84;3667260;79;99311;-82
2022/11/19 20:20:05;;;;;;;29.50;15.60;;;;;;;-1.01;100.00;100124.73;3659655;79;27686;-84
2022/11/19 20:25:06;;;;;;;33.98;16.37;;;;;;;-0.99;100.00;100129.27;3653993;78;99380;-83
2022/11/19 20:30:09;;;;;;;32.03;14.80;;;;;;;-0.98;100.00;100134.94;3661893;79;28675;-83
2022/11/19 20:35:09;;;;;;;35.70;17.77;;;;;;;-1.01;100.00;100141.48;3650682;79;99490;-83
2022/11/19 20:40:10;;;;;;;36.23;17.33;;;;;;;-1.01;100.00;100136.89;3651923;78;25888;-82
2022/11/19 20:45:11;;;;;;;36.63;15.73;;;;;;;-1.01;100.00;100136.89;3650228;79;99262;-82
2022/11/19 20:50:12;;;;;;;34.90;15.50;;;;;;;-1.01;100.00;100133.38;3661169;79;26259;-82
2022/11/19 20:55:13;;;;;;;30.50;13.67;;;;;;;-1.02;100.00;100133.14;3660534;78;99296;-83
2022/11/19 21:00:16;;;;;;;29.33;12.70;;;;;;;-1.05;100.00;100134.55;3656995;78;26391;-83
2022/11/19 21:05:17;;;;;;;28.30;13.27;;;;;;;-1.06;100.00;100133.50;3653668;79;99193;-83
2022/11/19 21:10:18;;;;;;;27.33;12.97;;;;;;;-1.05;100.00;100135.13;3663850;78;25997;-84
2022/11/19 21:15:18;;;;;;;40.83;19.27;;;;;;;-1.05;100.00;100139.17;3653653;79;99545;-83
2022/11/19 21:20:20;;;;;;;38.70;15.30;;;;;;;-1.07;100.00;100135.95;3668186;79;25883;-82
2022/11/19 21:25:21;;;;;;;34.60;14.73;;;;;;;-1.06;100.00;100124.05;3654968;78;99375;-82
2022/11/19 21:30:22;;;;;;;30.00;13.80;;;;;;;-1.06;100.00;100120.80;3656187;78;26505;-82
2022/11/19 21:35:23;;;;;;;27.00;12.83;;;;;;;-1.05;100.00;100126.45;3655696;79;99451;-82
2022/11/19 21:40:28;;;;;;;24.23;12.93;;;;;;;-1.03;100.00;100124.80;3652682;78;26136;-82
2022/11/19 21:45:29;;;;;;;26.12;12.68;;;;;;;-1.05;100.00;100124.31;3637292;79;99224;-82
2022/11/19 21:50:30;;;;;;;25.47;11.93;;;;;;;-1.05;100.00;100128.37;3648857;79;26816;-81
2022/11/19 21:55:31;;;;;;;27.55;13.05;;;;;;;-1.07;100.00;100128.66;3659223;78;99139;-82
2022/11/19 22:00:33;;;;;;;29.93;13.27;;;;;;;-1.10;100.00;100118.47;3656353;78;26253;-83
2022/11/19 22:05:34;;;;;;;21.60;10.90;;;;;;;-1.09;100.00;100124.11;3647056;78;99344;-82
2022/11/19 22:10:35;;;;;;;23.20;10.93;;;;;;;-1.10;100.00;100127.14;3650131;78;26425;-82
2022/11/19 22:15:36;;;;;;;23.87;11.63;;;;;;;-1.14;100.00;100122.09;3655665;78;99391;-82
2022/11/19 22:20:36;;;;;;;24.23;11.87;;;;;;;-1.17;100.00;100128.09;3651842;78;26255;-82
2022/11/19 22:25:37;;;;;;;21.63;11.00;;;;;;;-1.17;100.00;100124.05;3657192;79;99123;-83
2022/11/19 22:30:38;;;;;;;23.07;10.27;;;;;;;-1.15;100.00;100123.21;3659555;79;26499;-82
2022/11/19 22:35:39;;;;;;;24.20;10.70;;;;;;;-1.10;100.00;100127.92;3656024;78;99190;-82
2022/11/19 22:40:39;;;;;;;26.47;11.10;;;;;;;-1.08;100.00;100132.48;3669739;80;26109;-83
2022/11/19 22:45:44;;;;;;;22.37;10.63;;;;;;;-1.05;100.00;100125.09;3655978;79;99303;-83
2022/11/19 22:50:44;;;;;;;21.97;10.73;;;;;;;-1.00;100.00;100128.25;3681714;78;26396;-83
2022/11/19 22:55:45;;;;;;;23.27;11.73;;;;;;;-1.00;100.00;100129.02;3673959;78;99226;-83
2022/11/19 23:00:48;;;;;;;27.97;11.07;;;;;;;-1.00;100.00;100130.38;3673743;78;33495;-82
2022/11/19 23:05:51;;;;;;;21.33;10.23;;;;;;;-0.99;100.00;100125.78;3682811;78;99315;-82
2022/11/19 23:11:03;;;;;;;21.07;9.60;;;;;;;-0.99;100.00;100127.13;3685321;78;25986;-82
2022/11/19 23:16:17;;;;;;;22.13;10.87;;;;;;;-0.98;100.00;100126.02;3679460;78;99452;-81
2022/11/19 23:21:26;;;;;;;20.63;9.90;;;;;;;-0.96;100.00;100120.56;3689104;78;25983;-81
2022/11/19 23:26:29;;;;;;;20.33;10.47;;;;;;;-0.93;100.00;100118.58;3669846;78;99208;-82
2022/11/19 23:31:34;;;;;;;22.40;10.80;;;;;;;-0.90;100.00;100113.11;3682570;78;32971;-82
2022/11/19 23:36:38;;;;;;;21.80;10.63;;;;;;;-0.87;100.00;100107.11;3675400;78;99042;-82
2022/11/19 23:41:39;;;;;;;25.77;12.43;;;;;;;-0.87;100.00;100109.80;3673347;78;25850;-82
2022/11/19 23:46:40;;;;;;;22.33;10.53;;;;;;;-0.87;100.00;100109.27;3683326;78;99004;-82
2022/11/19 23:51:41;;;;;;;22.17;10.95;;;;;;;-0.86;100.00;100107.34;3679752;78;32853;-83
2022/11/19 23:56:42;;;;;;;20.32;10.05;;;;;;;-0.84;100.00;100113.22;3671717;78;99275;-82
